Mariq — SVA2152 — position and weather

sailwx.info

Track history (hours):
 
Tides and Currents Weather Stations Pressure Air Temp Water Temp Dewpoint Dewpoint Depression Visibility Wind Speed Wind Dir Waves Ship Positions

Mariq

Last reported at 2014-Dec-17 22:30 UTC. Time now 2014-Dec-19 10:09 UTC.
Position N 37°18' E 026°46'.

Length 57 m.

Type: Tanker. MMSI: 239758424.

Date/timePositionNaut miles runAvg speedWind from/ knotsBaromVisibWave heightAir tempDewpointWater temp
2014-Dec-17 22:30N 37°18' E 026°46'  
2014-Dec-14 21:19N 37°18' E 026°38'1 0.0
2014-Dec-14 02:33N 37°19' E 026°37'34 0.8
2014-Dec-12 09:34N 36°45' E 026°33'10 9.2
2014-Dec-12 08:32N 36°49' E 026°22'9 9.6
2014-Dec-12 07:33N 36°53' E 026°11'9 9.4
2014-Dec-12 06:34N 36°57' E 026°01'3 3.3
2014-Dec-12 05:34N 36°54' E 025°59'0 0.0
2014-Dec-12 04:34N 36°54' E 025°59'0 0.0
2014-Dec-12 03:34N 36°54' E 025°59'0 0.0
2014-Dec-12 02:34N 36°54' E 025°59'0 0.0
2014-Dec-12 01:34N 36°54' E 025°59'0 0.0
2014-Dec-12 00:34N 36°54' E 025°59'0 0.0
2014-Dec-11 23:34N 36°54' E 025°59'0 0.0
2014-Dec-11 22:34N 36°54' E 025°59'0 0.0
2014-Dec-11 21:33N 36°54' E 025°59'0 0.0
2014-Dec-11 20:34N 36°54' E 025°59'0 0.0
2014-Dec-11 19:34N 36°54' E 025°59'0 0.0
2014-Dec-11 18:34N 36°54' E 025°59'0 0.0
2014-Dec-11 17:34N 36°54' E 025°59'0 0.0
2014-Dec-11 16:33N 36°54' E 025°59'0 0.0
2014-Dec-11 15:34N 36°54' E 025°59'0 0.0
2014-Dec-11 14:33N 36°54' E 025°59'0 0.0
2014-Dec-11 13:33N 36°54' E 025°59'0 0.0
2014-Dec-11 12:33N 36°54' E 025°59'0 0.0
2014-Dec-11 11:34N 36°54' E 025°59'0 0.0
2014-Dec-11 10:34N 36°54' E 025°59'0 0.0
2014-Dec-11 09:34N 36°54' E 025°59'0 0.0
2014-Dec-11 08:33N 36°54' E 025°59'0 0.0
2014-Dec-11 07:34N 36°54' E 025°59'0 0.0
2014-Dec-11 06:34N 36°54' E 025°59'0 0.0
2014-Dec-11 05:33N 36°54' E 025°59'0 0.0
2014-Dec-11 04:34N 36°54' E 025°59'0 0.0
2014-Dec-11 03:34N 36°54' E 025°59'0 0.0
2014-Dec-11 02:34N 36°54' E 025°59'0 0.0
2014-Dec-11 01:34N 36°54' E 025°59'0 0.0
2014-Dec-11 00:33N 36°54' E 025°59'3 2.7
2014-Dec-10 23:34N 36°55' E 025°55'6 6.0
2014-Dec-10 22:33N 36°60' E 025°51'9 9.1
2014-Dec-10 21:34N 37°06' E 025°43'9 9.2
2014-Dec-10 20:33N 37°12' E 025°34'9 8.7
2014-Dec-10 19:33N 37°14' E 025°24'8 8.5
2014-Dec-10 18:34N 37°16' E 025°13'8 8.3
2014-Dec-10 17:33N 37°18' E 025°03'8 8.1
2014-Dec-10 16:33N 37°21' E 024°53'9 9.0
2014-Dec-10 15:34N 37°24' E 024°43'9 8.6
2014-Dec-10 14:34N 37°28' E 024°33'8 8.4
2014-Dec-10 13:33N 37°30' E 024°23'10 8.2
2014-Dec-10 12:16N 37°34' E 024°11'7 0.6
2014-Dec-10 00:11N 37°40' E 024°05'6 9.5
2014-Dec-09 23:34N 37°34' E 024°08'1010.3
2014-Dec-09 22:33N 37°25' E 024°14'1010.3
2014-Dec-09 21:33N 37°16' E 024°19'1010.5
2014-Dec-09 20:34N 37°06' E 024°25'1010.1
2014-Dec-09 19:34N 36°58' E 024°32'10 9.8
2014-Dec-09 18:34N 36°49' E 024°37'2 1.8
2014-Dec-09 17:24N 36°47' E 024°35'0 0.0
2014-Dec-09 16:31N 36°47' E 024°35'0 0.0
2014-Dec-09 15:24N 36°47' E 024°35'0 0.0
2014-Dec-09 14:31N 36°47' E 024°35'0 0.0
2014-Dec-09 13:32N 36°47' E 024°35'0 0.0
2014-Dec-09 12:34N 36°47' E 024°35'0 0.0
2014-Dec-09 11:31N 36°47' E 024°35'0 0.0
2014-Dec-09 10:33N 36°47' E 024°35'1 0.9
2014-Dec-09 09:33N 36°47' E 024°36'1 0.8
2014-Dec-09 08:31N 36°47' E 024°35'0 0.0
2014-Dec-09 07:33N 36°47' E 024°35'0 0.0
2014-Dec-09 06:30N 36°47' E 024°35'0 0.0
2014-Dec-09 05:33N 36°47' E 024°35'0 0.0
2014-Dec-09 04:32N 36°47' E 024°35'0 0.0
2014-Dec-09 03:33N 36°47' E 024°35'0 0.0
2014-Dec-09 02:34N 36°47' E 024°35'0 0.0
2014-Dec-09 01:34N 36°47' E 024°35'4 4.2
2014-Dec-09 00:33N 36°51' E 024°36'9 9.3
2014-Dec-08 23:34N 36°59' E 024°30'9 8.8
2014-Dec-08 22:33N 37°06' E 024°24'9 8.6
2014-Dec-08 21:34N 37°14' E 024°19'9 8.9
2014-Dec-08 20:34N 37°22' E 024°15'9 8.9
2014-Dec-08 19:32N 37°30' E 024°10'4 0.3
2014-Dec-08 07:33N 37°34' E 024°11'1010.3
2014-Dec-08 06:33N 37°30' E 024°23'1110.6
2014-Dec-08 05:34N 37°26' E 024°36'1010.3
2014-Dec-08 04:33N 37°23' E 024°48'1010.1
2014-Dec-08 03:34N 37°20' E 024°60'1010.3
2014-Dec-08 02:34N 37°18' E 025°12'1010.4
2014-Dec-08 01:33N 37°15' E 025°25'10 9.8
2014-Dec-08 00:33N 37°11' E 025°36'9 9.6
2014-Dec-07 23:34N 37°02' E 025°42'1010.0
2014-Dec-07 22:34N 36°53' E 025°48'  
Track history (hours):
 
Tides and Currents Weather Stations Pressure Air Temp Water Temp Dewpoint Dewpoint Depression Visibility Wind Speed Wind Dir Waves Ship Positions

Mariq

Last reported at 2014-Dec-17 22:30 UTC. Time now 2014-Dec-19 10:09 UTC.
Position N 37°18' E 026°46'.

Length 57 m.

Type: Tanker. MMSI: 239758424.

Date/timePositionNaut miles runAvg speedWind from/ knotsBaromVisibWave heightAir tempDewpointWater temp
2014-Dec-17 22:30N 37°18' E 026°46'  
2014-Dec-14 21:19N 37°18' E 026°38'1 0.0
2014-Dec-14 02:33N 37°19' E 026°37'34 0.8
2014-Dec-12 09:34N 36°45' E 026°33'10 9.2
2014-Dec-12 08:32N 36°49' E 026°22'9 9.6
2014-Dec-12 07:33N 36°53' E 026°11'9 9.4
2014-Dec-12 06:34N 36°57' E 026°01'3 3.3
2014-Dec-12 05:34N 36°54' E 025°59'0 0.0
2014-Dec-12 04:34N 36°54' E 025°59'0 0.0
2014-Dec-12 03:34N 36°54' E 025°59'0 0.0
2014-Dec-12 02:34N 36°54' E 025°59'0 0.0
2014-Dec-12 01:34N 36°54' E 025°59'0 0.0
2014-Dec-12 00:34N 36°54' E 025°59'0 0.0
2014-Dec-11 23:34N 36°54' E 025°59'0 0.0
2014-Dec-11 22:34N 36°54' E 025°59'0 0.0
2014-Dec-11 21:33N 36°54' E 025°59'0 0.0
2014-Dec-11 20:34N 36°54' E 025°59'0 0.0
2014-Dec-11 19:34N 36°54' E 025°59'0 0.0
2014-Dec-11 18:34N 36°54' E 025°59'0 0.0
2014-Dec-11 17:34N 36°54' E 025°59'0 0.0
2014-Dec-11 16:33N 36°54' E 025°59'0 0.0
2014-Dec-11 15:34N 36°54' E 025°59'0 0.0
2014-Dec-11 14:33N 36°54' E 025°59'0 0.0
2014-Dec-11 13:33N 36°54' E 025°59'0 0.0
2014-Dec-11 12:33N 36°54' E 025°59'0 0.0
2014-Dec-11 11:34N 36°54' E 025°59'0 0.0
2014-Dec-11 10:34N 36°54' E 025°59'0 0.0
2014-Dec-11 09:34N 36°54' E 025°59'0 0.0
2014-Dec-11 08:33N 36°54' E 025°59'0 0.0
2014-Dec-11 07:34N 36°54' E 025°59'0 0.0
2014-Dec-11 06:34N 36°54' E 025°59'0 0.0
2014-Dec-11 05:33N 36°54' E 025°59'0 0.0
2014-Dec-11 04:34N 36°54' E 025°59'0 0.0
2014-Dec-11 03:34N 36°54' E 025°59'0 0.0
2014-Dec-11 02:34N 36°54' E 025°59'0 0.0
2014-Dec-11 01:34N 36°54' E 025°59'0 0.0
2014-Dec-11 00:33N 36°54' E 025°59'3 2.7
2014-Dec-10 23:34N 36°55' E 025°55'6 6.0
2014-Dec-10 22:33N 36°60' E 025°51'9 9.1
2014-Dec-10 21:34N 37°06' E 025°43'9 9.2
2014-Dec-10 20:33N 37°12' E 025°34'9 8.7
2014-Dec-10 19:33N 37°14' E 025°24'8 8.5
2014-Dec-10 18:34N 37°16' E 025°13'8 8.3
2014-Dec-10 17:33N 37°18' E 025°03'8 8.1
2014-Dec-10 16:33N 37°21' E 024°53'9 9.0
2014-Dec-10 15:34N 37°24' E 024°43'9 8.6
2014-Dec-10 14:34N 37°28' E 024°33'8 8.4
2014-Dec-10 13:33N 37°30' E 024°23'10 8.2
2014-Dec-10 12:16N 37°34' E 024°11'7 0.6
2014-Dec-10 00:11N 37°40' E 024°05'6 9.5
2014-Dec-09 23:34N 37°34' E 024°08'1010.3
2014-Dec-09 22:33N 37°25' E 024°14'1010.3
2014-Dec-09 21:33N 37°16' E 024°19'1010.5
2014-Dec-09 20:34N 37°06' E 024°25'1010.1
2014-Dec-09 19:34N 36°58' E 024°32'10 9.8
2014-Dec-09 18:34N 36°49' E 024°37'2 1.8
2014-Dec-09 17:24N 36°47' E 024°35'0 0.0
2014-Dec-09 16:31N 36°47' E 024°35'0 0.0
2014-Dec-09 15:24N 36°47' E 024°35'0 0.0
2014-Dec-09 14:31N 36°47' E 024°35'0 0.0
2014-Dec-09 13:32N 36°47' E 024°35'0 0.0
2014-Dec-09 12:34N 36°47' E 024°35'0 0.0
2014-Dec-09 11:31N 36°47' E 024°35'0 0.0
2014-Dec-09 10:33N 36°47' E 024°35'1 0.9
2014-Dec-09 09:33N 36°47' E 024°36'1 0.8
2014-Dec-09 08:31N 36°47' E 024°35'0 0.0
2014-Dec-09 07:33N 36°47' E 024°35'0 0.0
2014-Dec-09 06:30N 36°47' E 024°35'0 0.0
2014-Dec-09 05:33N 36°47' E 024°35'0 0.0
2014-Dec-09 04:32N 36°47' E 024°35'0 0.0
2014-Dec-09 03:33N 36°47' E 024°35'0 0.0
2014-Dec-09 02:34N 36°47' E 024°35'0 0.0
2014-Dec-09 01:34N 36°47' E 024°35'4 4.2
2014-Dec-09 00:33N 36°51' E 024°36'9 9.3
2014-Dec-08 23:34N 36°59' E 024°30'9 8.8
2014-Dec-08 22:33N 37°06' E 024°24'9 8.6
2014-Dec-08 21:34N 37°14' E 024°19'9 8.9
2014-Dec-08 20:34N 37°22' E 024°15'9 8.9
2014-Dec-08 19:32N 37°30' E 024°10'4 0.3
2014-Dec-08 07:33N 37°34' E 024°11'1010.3
2014-Dec-08 06:33N 37°30' E 024°23'1110.6
2014-Dec-08 05:34N 37°26' E 024°36'1010.3
2014-Dec-08 04:33N 37°23' E 024°48'1010.1
2014-Dec-08 03:34N 37°20' E 024°60'1010.3
2014-Dec-08 02:34N 37°18' E 025°12'1010.4
2014-Dec-08 01:33N 37°15' E 025°25'10 9.8
2014-Dec-08 00:33N 37°11' E 025°36'9 9.6
2014-Dec-07 23:34N 37°02' E 025°42'1010.0
2014-Dec-07 22:34N 36°53' E 025°48'  

Dump ship's entire track history